createdAt,value
2023-03-11T00:05:22.174Z,8.57
2023-03-11T00:10:46.098Z,8.65
2023-03-11T00:16:07.950Z,8.68
2023-03-11T00:21:29.791Z,8.70
2023-03-11T00:26:51.685Z,8.73
2023-03-11T00:32:13.589Z,8.75
2023-03-11T00:37:35.474Z,8.78
2023-03-11T00:42:58.745Z,8.82
2023-03-11T00:48:20.674Z,8.74
2023-03-11T00:53:43.051Z,8.62
2023-03-11T00:59:04.888Z,8.56
2023-03-11T01:04:26.791Z,8.59
2023-03-11T01:09:48.650Z,8.73
2023-03-11T01:15:18.980Z,8.73
2023-03-11T01:20:40.813Z,8.57
2023-03-11T01:26:02.654Z,8.53
2023-03-11T01:31:24.525Z,8.43
2023-03-11T01:36:46.375Z,8.40
2023-03-11T01:42:09.412Z,8.43
2023-03-11T01:47:38.002Z,8.37
2023-03-11T01:53:00.063Z,8.30
2023-03-11T01:58:26.375Z,8.30
2023-03-11T02:03:48.581Z,8.14
2023-03-11T02:09:10.446Z,8.11
2023-03-11T02:14:33.278Z,8.08
2023-03-11T02:20:10.270Z,8.02
2023-03-11T02:25:59.152Z,7.91
2023-03-11T02:31:22.654Z,7.85
2023-03-11T02:36:44.515Z,7.77
2023-03-11T02:42:19.166Z,7.73
2023-03-11T02:47:41.374Z,7.67
2023-03-11T02:53:05.236Z,7.70
2023-03-11T02:58:27.077Z,7.65
2023-03-11T03:03:49.067Z,7.62
2023-03-11T03:09:10.951Z,7.52
2023-03-11T03:14:33.089Z,7.47
2023-03-11T03:19:54.921Z,7.40
2023-03-11T03:25:16.913Z,7.29
2023-03-11T03:30:39.277Z,7.21
2023-03-11T03:36:01.213Z,7.18
2023-03-11T03:41:23.515Z,7.18
2023-03-11T03:46:45.456Z,7.11
2023-03-11T03:52:08.139Z,7.18
2023-03-11T03:57:30.233Z,7.14
2023-03-11T04:02:52.077Z,7.14
2023-03-11T04:08:13.914Z,7.22
2023-03-11T04:13:35.951Z,7.27
2023-03-11T04:18:58.104Z,7.29
2023-03-11T04:24:20.043Z,7.32
2023-03-11T04:29:41.944Z,7.25
2023-03-11T04:35:05.061Z,7.15
2023-03-11T04:40:27.020Z,7.03
2023-03-11T04:45:50.496Z,7.06
2023-03-11T04:51:12.389Z,7.00
2023-03-11T04:56:34.308Z,7.08
2023-03-11T05:01:56.161Z,6.96
2023-03-11T05:07:18.018Z,6.90
2023-03-11T05:12:40.965Z,6.89
2023-03-11T05:18:04.108Z,6.86
2023-03-11T05:23:25.994Z,6.76
2023-03-11T05:28:47.841Z,6.81
2023-03-11T05:34:09.724Z,6.73
2023-03-11T05:39:31.533Z,6.90
2023-03-11T05:44:53.562Z,6.98
2023-03-11T05:50:15.427Z,7.23
2023-03-11T05:55:37.245Z,7.47
2023-03-11T06:00:59.102Z,7.60
2023-03-11T06:06:20.939Z,7.78
2023-03-11T06:11:43.021Z,7.90
2023-03-11T06:17:04.893Z,8.07
2023-03-11T06:22:26.750Z,8.06
2023-03-11T06:27:53.013Z,8.22
2023-03-11T06:33:14.885Z,8.31
2023-03-11T06:38:37.535Z,8.38
2023-03-11T06:43:59.522Z,8.36
2023-03-11T06:49:21.363Z,8.59
2023-03-11T06:54:43.248Z,8.72
2023-03-11T07:00:05.636Z,8.94
2023-03-11T07:05:27.624Z,8.93
2023-03-11T07:11:04.886Z,9.24
2023-03-11T07:16:28.761Z,9.61
2023-03-11T07:21:50.595Z,9.46
2023-03-11T07:27:12.518Z,9.41
2023-03-11T07:32:34.469Z,9.37
2023-03-11T07:37:56.312Z,9.21
2023-03-11T07:43:18.179Z,9.19
2023-03-11T07:48:40.578Z,9.34
2023-03-11T07:54:03.618Z,9.70
2023-03-11T07:59:25.478Z,9.64
2023-03-11T08:04:47.343Z,9.71
2023-03-11T08:10:10.027Z,9.71
2023-03-11T08:15:32.425Z,9.35
2023-03-11T08:20:54.374Z,9.59
2023-03-11T08:26:18.777Z,9.48
2023-03-11T08:31:41.273Z,9.06
2023-03-11T08:37:03.198Z,9.09
2023-03-11T08:42:25.161Z,8.87
2023-03-11T08:47:47.044Z,8.88
2023-03-11T08:53:09.006Z,9.08
2023-03-11T08:58:30.852Z,8.90
2023-03-11T09:03:52.998Z,9.08
2023-03-11T09:09:15.345Z,8.96
2023-03-11T09:14:39.390Z,8.92
2023-03-11T09:20:01.422Z,8.95
2023-03-11T09:25:23.283Z,8.92
2023-03-11T09:30:45.181Z,8.90
2023-03-11T09:36:08.309Z,8.83
2023-03-11T09:41:57.958Z,8.60
2023-03-11T09:47:43.248Z,8.29
2023-03-11T09:53:21.457Z,7.69
2023-03-11T09:58:43.231Z,7.45
2023-03-11T10:04:08.802Z,6.93
2023-03-11T10:09:48.600Z,6.67
2023-03-11T10:15:47.309Z,6.16
2023-03-11T10:21:40.677Z,5.89
2023-03-11T10:27:13.637Z,5.65
2023-03-11T10:32:43.061Z,5.54
2023-03-11T10:38:22.876Z,5.30
2023-03-11T10:44:19.927Z,4.81
2023-03-11T10:49:41.746Z,4.76
2023-03-11T10:55:03.895Z,4.71
2023-03-11T11:00:30.182Z,4.46
2023-03-11T11:05:59.518Z,4.09
2023-03-11T11:11:24.019Z,3.68
2023-03-11T11:16:51.999Z,3.34
2023-03-11T11:22:20.515Z,3.49
2023-03-11T11:27:54.516Z,3.44
2023-03-11T11:33:30.004Z,3.04
2023-03-11T11:38:56.071Z,2.99
2023-03-11T11:44:22.004Z,3.10
2023-03-11T11:49:56.946Z,3.15
2023-03-11T11:55:20.912Z,3.04
2023-03-11T12:00:56.958Z,3.03
2023-03-11T12:06:31.749Z,2.91
2023-03-11T12:12:13.247Z,3.07
2023-03-11T12:17:39.802Z,3.21
2023-03-11T12:23:07.399Z,2.71
2023-03-11T12:28:35.352Z,2.68
2023-03-11T12:34:02.193Z,2.57
2023-03-11T12:39:31.282Z,2.35
2023-03-11T12:44:53.250Z,2.47
2023-03-11T12:50:39.061Z,2.58
2023-03-11T12:56:49.515Z,2.48
2023-03-11T13:02:28.630Z,2.48
2023-03-11T13:08:01.407Z,2.62
2023-03-11T13:13:32.000Z,2.29
2023-03-11T13:18:53.920Z,2.19
2023-03-11T13:24:18.563Z,2.13
2023-03-11T13:29:53.303Z,1.80
2023-03-11T13:35:31.164Z,1.78
2023-03-11T13:40:53.569Z,1.68
2023-03-11T13:46:37.617Z,1.65
2023-03-11T13:52:02.262Z,1.60
2023-03-11T13:57:31.359Z,1.67
2023-03-11T14:02:55.985Z,1.77
2023-03-11T14:08:23.958Z,1.64
2023-03-11T14:13:50.731Z,1.54
2023-03-11T14:19:15.384Z,1.21
2023-03-11T14:24:38.184Z,1.45
2023-03-11T14:30:00.272Z,1.62
2023-03-11T14:35:22.484Z,1.56
2023-03-11T14:40:44.444Z,1.34
2023-03-11T14:46:07.998Z,1.46
2023-03-11T14:51:33.777Z,1.53
2023-03-11T14:57:10.781Z,1.69
2023-03-11T15:02:50.601Z,1.81
2023-03-11T15:08:12.756Z,1.83
2023-03-11T15:13:36.419Z,1.61
2023-03-11T15:19:21.087Z,1.82
2023-03-11T15:24:49.013Z,1.90
2023-03-11T15:30:29.660Z,1.80
2023-03-11T15:35:51.508Z,1.89
2023-03-11T15:41:15.646Z,1.85
2023-03-11T15:46:37.553Z,1.70
2023-03-11T15:52:00.480Z,1.98
2023-03-11T15:57:24.962Z,1.68
2023-03-11T16:02:47.005Z,1.75
2023-03-11T16:08:09.265Z,1.89
2023-03-11T16:13:31.149Z,1.89
2023-03-11T16:18:53.137Z,1.73
2023-03-11T16:24:20.609Z,1.67
2023-03-11T16:29:42.434Z,1.67
2023-03-11T16:35:04.617Z,1.61
2023-03-11T16:40:28.365Z,1.61
2023-03-11T16:45:50.238Z,1.64
2023-03-11T16:51:12.059Z,1.70
2023-03-11T16:56:35.097Z,1.57
2023-03-11T17:01:56.941Z,1.45
2023-03-11T17:07:18.880Z,1.47
2023-03-11T17:12:40.856Z,1.49
2023-03-11T17:18:02.755Z,1.38
2023-03-11T17:23:24.561Z,1.49
2023-03-11T17:28:46.434Z,1.43
2023-03-11T17:34:08.300Z,1.32
2023-03-11T17:39:30.158Z,1.40
2023-03-11T17:44:55.954Z,1.38
2023-03-11T17:50:18.137Z,1.44
2023-03-11T17:55:40.442Z,1.34
2023-03-11T18:01:08.060Z,1.36
2023-03-11T18:06:30.288Z,1.20
2023-03-11T18:11:52.276Z,1.30
2023-03-11T18:17:14.121Z,1.30
2023-03-11T18:22:36.437Z,1.29
2023-03-11T18:27:59.224Z,1.24
2023-03-11T18:33:22.296Z,1.21
2023-03-11T18:38:44.490Z,1.02
2023-03-11T18:44:06.737Z,0.80
2023-03-11T18:49:28.591Z,0.76
2023-03-11T18:54:50.436Z,0.81
2023-03-11T19:00:12.720Z,0.71
2023-03-11T19:05:34.582Z,0.65
2023-03-11T19:10:56.723Z,0.59
2023-03-11T19:16:21.609Z,0.49
2023-03-11T19:21:44.371Z,0.39
2023-03-11T19:27:06.336Z,0.26
2023-03-11T19:32:28.274Z,0.30
2023-03-11T19:37:50.713Z,0.27
2023-03-11T19:43:12.573Z,0.15
2023-03-11T19:48:34.824Z,0.17
2023-03-11T19:53:57.373Z,0.19
2023-03-11T19:59:19.224Z,0.14
2023-03-11T20:04:43.144Z,0.11
2023-03-11T20:10:05.720Z,0.06
2023-03-11T20:15:27.513Z,0.09
2023-03-11T20:20:49.359Z,-0.03
2023-03-11T20:26:15.718Z,-0.06
2023-03-11T20:31:37.549Z,-0.39
2023-03-11T20:36:59.454Z,-0.21
2023-03-11T20:42:21.376Z,-0.25
2023-03-11T20:47:43.980Z,-0.16
2023-03-11T20:53:05.936Z,-0.19
2023-03-11T20:58:27.839Z,-0.20
2023-03-11T21:03:52.349Z,-0.37
2023-03-11T21:09:14.954Z,-0.24
2023-03-11T21:14:36.866Z,-0.10
2023-03-11T21:19:58.739Z,-0.01
2023-03-11T21:25:20.680Z,-0.01
2023-03-11T21:30:42.905Z,0.03
2023-03-11T21:36:06.071Z,0.11
2023-03-11T21:41:28.114Z,0.06
2023-03-11T21:46:50.198Z,0.03
2023-03-11T21:52:12.620Z,-0.09
2023-03-11T21:57:34.586Z,-0.15
2023-03-11T22:02:57.098Z,-0.21
2023-03-11T22:08:19.195Z,-0.21
2023-03-11T22:13:41.306Z,-0.20
2023-03-11T22:19:03.241Z,-0.26
2023-03-11T22:24:25.198Z,-0.19
2023-03-11T22:29:47.035Z,-0.05
2023-03-11T22:35:08.983Z,-0.20
2023-03-11T22:40:30.830Z,-0.29
2023-03-11T22:45:52.790Z,-0.26
2023-03-11T22:51:14.705Z,-0.35
2023-03-11T22:56:36.679Z,-0.50
2023-03-11T23:01:58.631Z,-0.41
2023-03-11T23:07:20.429Z,-0.54
2023-03-11T23:12:42.514Z,-0.39
2023-03-11T23:18:04.582Z,-0.44
2023-03-11T23:23:26.551Z,-0.45
2023-03-11T23:28:49.309Z,-0.55
2023-03-11T23:34:11.221Z,-0.54
2023-03-11T23:39:33.057Z,-0.62
2023-03-11T23:44:54.850Z,-0.68
2023-03-11T23:50:16.840Z,-0.71
2023-03-11T23:55:38.788Z,-0.69
